This is the latest recevied weather packets stored in our database for station/object EB5AGF-13. If no packets are shown the sender has not sent any weather packets the latest 10 day(s).
| Time | Temp. | Humidity | Pressure | Rain* | Wind** | Luminosity | Snow |
|---|---|---|---|---|---|---|---|
| 1777639212 | 21.67° C | 78% | 1017.4 hPa | 0 mm | 0.89 m/s, 319° | 241 W/m² | - |
| 1777638908 | 21.67° C | 77% | 1017.3 hPa | 0 mm | 0.89 m/s, 290° | 214 W/m² | - |
| 1777638605 | 21.67° C | 77% | 1017.1 hPa | 0 mm | 3.58 m/s, 202° | 167 W/m² | - |
| 1777638300 | 22.22° C | 76% | 1017.3 hPa | 0 mm | 1.79 m/s, 119° | 164 W/m² | - |
| 1777637996 | 22.22° C | 75% | 1017.3 hPa | 0 mm | 2.68 m/s, 277° | 168 W/m² | - |
| 1777637692 | 22.78° C | 75% | 1017.3 hPa | 0 mm | 1.34 m/s, 151° | 239 W/m² | - |
| 1777637389 | 23.33° C | 69% | 1017.3 hPa | 0 mm | 1.34 m/s, 182° | 246 W/m² | - |
| 1777637084 | 23.33° C | 70% | 1017.3 hPa | 0 mm | 0.45 m/s, 192° | 288 W/m² | - |
| 1777636780 | 23.33° C | 69% | 1017.5 hPa | 0 mm | 1.34 m/s, 220° | 324 W/m² | - |
| 1777636476 | 22.78° C | 72% | 1017.3 hPa | 0 mm | 0.89 m/s, 330° | 725 W/m² | - |
| 1777636173 | 22.78° C | 71% | 1017.3 hPa | 0 mm | 0.89 m/s, 92° | 187 W/m² | - |
| 1777635868 | 22.78° C | 70% | 1017.5 hPa | 0 mm | 1.34 m/s, 24° | 313 W/m² | - |
| 1777635564 | 23.33° C | 70% | 1017.4 hPa | 0 mm | 0.45 m/s, 266° | 259 W/m² | - |
| 1777635260 | 23.33° C | 69% | 1017.6 hPa | 0 mm | 0.89 m/s, 236° | 311 W/m² | - |
| 1777634958 | 23.33° C | 70% | 1017.5 hPa | 0 mm | 0.89 m/s, 194° | 759 W/m² | - |
| 1777634652 | 22.22° C | 71% | 1017.5 hPa | 0 mm | 0 m/s | 227 W/m² | - |
| 1777634348 | 22.22° C | 73% | 1017.4 hPa | 0 mm | 2.24 m/s, 107° | 389 W/m² | - |
| 1777634044 | 22.22° C | 71% | 1017.4 hPa | 0 mm | 1.79 m/s, 94° | 256 W/m² | - |
| 1777633743 | 22.22° C | 70% | 1017.6 hPa | 0 mm | 1.79 m/s, 122° | 289 W/m² | - |
| 1777633436 | 22.22° C | 70% | 1017.7 hPa | 0 mm | 1.34 m/s, 195° | 318 W/m² | - |
| 1777633132 | 22.78° C | 70% | 1017.5 hPa | 0 mm | 1.34 m/s, 116° | 302 W/m² | - |
| 1777632828 | 22.22° C | 72% | 1017.4 hPa | 0 mm | 1.79 m/s, 75° | 270 W/m² | - |
| 1777632525 | 22.22° C | 74% | 1017.5 hPa | 0 mm | 0.45 m/s, 346° | 214 W/m² | - |
| 1777632220 | 22.22° C | 73% | 1017.6 hPa | 0 mm | 2.24 m/s, 172° | 224 W/m² | - |
| 1777631912 | 21.67° C | 74% | 1017.7 hPa | 0 mm | 1.79 m/s, 119° | 334 W/m² | - |
* Rain latest hour (hover to see other rain measurements)
** Current wind speed in m/s (hover to see current wind gust speed)